sensor_id;sensor_type;location;lat;lon;timestamp;pressure;altitude;pressure_sealevel;temperature;humidity
4858;BME280;58975;51.978;8.472;2024-03-23T00:55:59;99736.47;;;5.62;100.00
4858;BME280;58975;51.978;8.472;2024-03-23T01:00:55;99723.34;;;5.61;100.00
4858;BME280;58975;51.978;8.472;2024-03-23T01:05:50;99717.34;;;5.59;100.00
4858;BME280;58975;51.978;8.472;2024-03-23T01:10:59;99702.81;;;5.90;100.00
4858;BME280;58975;51.978;8.472;2024-03-23T01:15:56;99709.34;;;5.97;100.00
4858;BME280;58975;51.978;8.472;2024-03-23T01:20:52;99709.25;;;5.98;100.00
4858;BME280;58975;51.978;8.472;2024-03-23T01:25:54;99693.72;;;5.94;100.00
4858;BME280;58975;51.978;8.472;2024-03-23T01:30:49;99681.50;;;5.67;100.00
4858;BME280;58975;51.978;8.472;2024-03-23T01:35:45;99683.22;;;5.56;100.00
4858;BME280;58975;51.978;8.472;2024-03-23T01:40:40;99681.22;;;5.47;100.00
4858;BME280;58975;51.978;8.472;2024-03-23T01:45:36;99684.31;;;5.41;100.00
4858;BME280;58975;51.978;8.472;2024-03-23T01:50:32;99680.00;;;5.40;100.00
4858;BME280;58975;51.978;8.472;2024-03-23T01:55:32;99681.25;;;5.34;100.00
4858;BME280;58975;51.978;8.472;2024-03-23T02:00:27;99678.59;;;5.34;100.00
4858;BME280;58975;51.978;8.472;2024-03-23T02:05:23;99675.97;;;5.34;100.00
4858;BME280;58975;51.978;8.472;2024-03-23T02:10:19;99678.75;;;5.33;100.00
4858;BME280;58975;51.978;8.472;2024-03-23T02:15:15;99663.09;;;5.30;100.00
4858;BME280;58975;51.978;8.472;2024-03-23T02:20:11;99666.19;;;5.23;100.00
4858;BME280;58975;51.978;8.472;2024-03-23T02:25:07;99684.66;;;5.23;100.00
4858;BME280;58975;51.978;8.472;2024-03-23T02:30:03;99662.72;;;4.85;100.00
4858;BME280;58975;51.978;8.472;2024-03-23T02:34:59;99639.78;;;5.11;100.00
4858;BME280;58975;51.978;8.472;2024-03-23T02:39:55;99645.69;;;5.14;100.00
4858;BME280;58975;51.978;8.472;2024-03-23T02:44:50;99627.75;;;5.19;100.00
4858;BME280;58975;51.978;8.472;2024-03-23T02:49:46;99639.88;;;5.22;100.00
4858;BME280;58975;51.978;8.472;2024-03-23T02:54:41;99624.38;;;5.17;100.00
4858;BME280;58975;51.978;8.472;2024-03-23T02:59:40;99620.16;;;5.02;100.00
4858;BME280;58975;51.978;8.472;2024-03-23T03:04:35;99620.81;;;4.93;100.00
4858;BME280;58975;51.978;8.472;2024-03-23T03:09:31;99598.25;;;4.89;100.00
4858;BME280;58975;51.978;8.472;2024-03-23T03:14:27;99602.03;;;4.85;100.00
4858;BME280;58975;51.978;8.472;2024-03-23T03:19:23;99597.19;;;4.79;100.00
4858;BME280;58975;51.978;8.472;2024-03-23T03:24:18;99602.66;;;4.76;100.00
4858;BME280;58975;51.978;8.472;2024-03-23T03:29:14;99599.09;;;4.77;100.00
4858;BME280;58975;51.978;8.472;2024-03-23T03:34:10;99604.59;;;4.74;100.00
4858;BME280;58975;51.978;8.472;2024-03-23T03:39:05;99589.78;;;4.71;100.00
4858;BME280;58975;51.978;8.472;2024-03-23T03:44:01;99598.03;;;4.67;100.00
4858;BME280;58975;51.978;8.472;2024-03-23T03:48:57;99608.25;;;4.71;100.00
4858;BME280;58975;51.978;8.472;2024-03-23T03:53:53;99609.00;;;4.73;100.00
4858;BME280;58975;51.978;8.472;2024-03-23T03:58:48;99602.66;;;4.76;100.00
4858;BME280;58975;51.978;8.472;2024-03-23T04:03:44;99606.16;;;4.76;100.00
4858;BME280;58975;51.978;8.472;2024-03-23T04:08:39;99609.19;;;4.70;100.00
4858;BME280;58975;51.978;8.472;2024-03-23T04:13:35;99607.19;;;4.49;100.00
4858;BME280;58975;51.978;8.472;2024-03-23T04:18:30;99622.69;;;4.41;100.00
4858;BME280;58975;51.978;8.472;2024-03-23T04:23:26;99618.47;;;4.38;100.00
4858;BME280;58975;51.978;8.472;2024-03-23T04:28:21;99600.75;;;4.40;100.00
4858;BME280;58975;51.978;8.472;2024-03-23T04:33:17;99598.03;;;4.42;100.00
4858;BME280;58975;51.978;8.472;2024-03-23T04:38:12;99602.44;;;4.41;100.00
4858;BME280;58975;51.978;8.472;2024-03-23T04:43:08;99604.34;;;4.39;100.00
4858;BME280;58975;51.978;8.472;2024-03-23T04:48:04;99615.00;;;4.38;100.00
4858;BME280;58975;51.978;8.472;2024-03-23T04:52:59;99610.44;;;4.40;100.00
4858;BME280;58975;51.978;8.472;2024-03-23T04:57:55;99601.59;;;4.41;100.00
4858;BME280;58975;51.978;8.472;2024-03-23T05:02:50;99570.59;;;4.57;100.00
4858;BME280;58975;51.978;8.472;2024-03-23T05:07:46;99567.88;;;4.58;100.00
4858;BME280;58975;51.978;8.472;2024-03-23T05:12:41;99565.13;;;4.60;100.00
4858;BME280;58975;51.978;8.472;2024-03-23T05:17:38;99581.78;;;4.60;100.00
4858;BME280;58975;51.978;8.472;2024-03-23T05:22:33;99579.13;;;4.48;100.00
4858;BME280;58975;51.978;8.472;2024-03-23T05:27:29;99578.63;;;4.43;100.00
4858;BME280;58975;51.978;8.472;2024-03-23T05:32:24;99579.56;;;4.42;100.00
4858;BME280;58975;51.978;8.472;2024-03-23T05:37:20;99590.84;;;4.44;100.00
4858;BME280;58975;51.978;8.472;2024-03-23T05:42:16;99581.06;;;4.46;100.00
4858;BME280;58975;51.978;8.472;2024-03-23T05:47:13;99584.09;;;4.52;100.00
4858;BME280;58975;51.978;8.472;2024-03-23T05:52:12;99575.78;;;4.46;100.00
4858;BME280;58975;51.978;8.472;2024-03-23T05:57:08;99583.88;;;4.55;100.00
4858;BME280;58975;51.978;8.472;2024-03-23T06:02:04;99578.63;;;4.68;100.00
4858;BME280;58975;51.978;8.472;2024-03-23T06:06:59;99583.25;;;4.64;100.00
4858;BME280;58975;51.978;8.472;2024-03-23T06:11:55;99584.03;;;4.66;100.00
4858;BME280;58975;51.978;8.472;2024-03-23T06:16:50;99592.56;;;4.70;100.00
4858;BME280;58975;51.978;8.472;2024-03-23T06:21:46;99595.69;;;4.75;100.00
4858;BME280;58975;51.978;8.472;2024-03-23T06:26:41;99597.19;;;4.79;100.00
4858;BME280;58975;51.978;8.472;2024-03-23T06:31:37;99605.63;;;4.84;100.00
4858;BME280;58975;51.978;8.472;2024-03-23T06:36:32;99604.38;;;4.90;100.00
4858;BME280;58975;51.978;8.472;2024-03-23T06:41:28;99597.50;;;4.87;100.00
4858;BME280;58975;51.978;8.472;2024-03-23T06:46:24;99598.66;;;4.83;100.00
4858;BME280;58975;51.978;8.472;2024-03-23T06:51:19;99603.53;;;4.89;100.00
4858;BME280;58975;51.978;8.472;2024-03-23T06:56:15;99598.03;;;4.92;100.00
4858;BME280;58975;51.978;8.472;2024-03-23T07:01:10;99610.28;;;4.93;100.00
4858;BME280;58975;51.978;8.472;2024-03-23T07:06:09;99618.06;;;4.95;100.00
4858;BME280;58975;51.978;8.472;2024-03-23T07:11:04;99617.97;;;4.96;100.00
4858;BME280;58975;51.978;8.472;2024-03-23T07:16:00;99615.00;;;5.01;100.00
4858;BME280;58975;51.978;8.472;2024-03-23T07:20:56;99615.94;;;5.12;100.00
4858;BME280;58975;51.978;8.472;2024-03-23T07:25:59;99617.38;;;5.29;100.00
4858;BME280;58975;51.978;8.472;2024-03-23T07:31:05;99595.53;;;5.27;100.00
4858;BME280;58975;51.978;8.472;2024-03-23T07:36:01;99590.72;;;5.45;100.00
4858;BME280;58975;51.978;8.472;2024-03-23T07:41:08;99581.41;;;5.52;100.00
4858;BME280;58975;51.978;8.472;2024-03-23T07:46:04;99583.03;;;5.65;100.00
4858;BME280;58975;51.978;8.472;2024-03-23T07:51:01;99575.84;;;5.67;100.00
4858;BME280;58975;51.978;8.472;2024-03-23T07:56:00;99560.75;;;5.81;100.00
4858;BME280;58975;51.978;8.472;2024-03-23T08:01:03;99557.59;;;5.88;100.00
4858;BME280;58975;51.978;8.472;2024-03-23T08:06:20;99552.22;;;6.01;100.00
4858;BME280;58975;51.978;8.472;2024-03-23T08:11:16;99544.25;;;6.25;100.00
4858;BME280;58975;51.978;8.472;2024-03-23T08:16:12;99526.25;;;6.52;100.00
4858;BME280;58975;51.978;8.472;2024-03-23T08:21:09;99513.88;;;6.63;100.00
4858;BME280;58975;51.978;8.472;2024-03-23T08:26:06;99512.06;;;6.53;100.00
4858;BME280;58975;51.978;8.472;2024-03-23T08:31:03;99501.38;;;6.54;100.00
4858;BME280;58975;51.978;8.472;2024-03-23T08:36:03;99494.38;;;6.76;100.00
4858;BME280;58975;51.978;8.472;2024-03-23T08:41:03;99479.03;;;6.58;100.00
4858;BME280;58975;51.978;8.472;2024-03-23T08:51:07;99480.06;;;7.00;100.00
4858;BME280;58975;51.978;8.472;2024-03-23T08:56:04;99473.22;;;6.76;100.00
4858;BME280;58975;51.978;8.472;2024-03-23T09:01:04;99482.25;;;6.73;100.00
4858;BME280;58975;51.978;8.472;2024-03-23T09:05:59;99483.38;;;7.25;100.00
4858;BME280;58975;51.978;8.472;2024-03-23T09:10:55;99470.94;;;7.36;100.00
4858;BME280;58975;51.978;8.472;2024-03-23T09:15:52;99476.06;;;7.06;100.00
4858;BME280;58975;51.978;8.472;2024-03-23T09:20:51;99475.53;;;6.69;100.00
4858;BME280;58975;51.978;8.472;2024-03-23T09:25:48;99485.38;;;6.34;100.00
4858;BME280;58975;51.978;8.472;2024-03-23T09:30:44;99496.69;;;6.47;100.00
4858;BME280;58975;51.978;8.472;2024-03-23T09:35:41;99485.25;;;6.69;100.00
4858;BME280;58975;51.978;8.472;2024-03-23T09:40:41;99483.19;;;6.83;100.00
4858;BME280;58975;51.978;8.472;2024-03-23T09:45:40;99487.16;;;7.43;100.00
4858;BME280;58975;51.978;8.472;2024-03-23T09:50:38;99482.06;;;8.03;100.00
4858;BME280;58975;51.978;8.472;2024-03-23T09:55:34;99475.09;;;8.02;100.00
4858;BME280;58975;51.978;8.472;2024-03-23T10:00:33;99474.41;;;7.89;100.00
4858;BME280;58975;51.978;8.472;2024-03-23T10:05:29;99461.09;;;8.42;100.00
4858;BME280;58975;51.978;8.472;2024-03-23T10:10:27;99461.75;;;8.14;100.00
4858;BME280;58975;51.978;8.472;2024-03-23T10:15:24;99450.75;;;8.39;97.15
4858;BME280;58975;51.978;8.472;2024-03-23T10:20:21;99442.22;;;8.75;95.20
4858;BME280;58975;51.978;8.472;2024-03-23T10:25:22;99452.50;;;8.29;96.82
4858;BME280;58975;51.978;8.472;2024-03-23T10:30:18;99461.59;;;7.53;96.76
4858;BME280;58975;51.978;8.472;2024-03-23T10:35:19;99458.06;;;7.32;95.97
4858;BME280;58975;51.978;8.472;2024-03-23T10:40:18;99463.16;;;8.18;98.64
4858;BME280;58975;51.978;8.472;2024-03-23T10:45:13;99451.72;;;7.55;98.91
4858;BME280;58975;51.978;8.472;2024-03-23T10:50:09;99445.94;;;7.50;93.90
4858;BME280;58975;51.978;8.472;2024-03-23T10:55:06;99451.75;;;7.76;91.17
4858;BME280;58975;51.978;8.472;2024-03-23T11:00:03;99452.59;;;7.76;88.09
4858;BME280;58975;51.978;8.472;2024-03-23T11:04:59;99459.03;;;8.04;90.34
4858;BME280;58975;51.978;8.472;2024-03-23T11:09:55;99453.72;;;7.63;87.92
4858;BME280;58975;51.978;8.472;2024-03-23T11:14:52;99437.41;;;8.08;89.49
4858;BME280;58975;51.978;8.472;2024-03-23T11:19:54;99447.09;;;7.57;89.15
4858;BME280;58975;51.978;8.472;2024-03-23T11:24:52;99453.13;;;8.00;92.05
4858;BME280;58975;51.978;8.472;2024-03-23T11:29:47;99432.69;;;8.63;90.68
4858;BME280;58975;51.978;8.472;2024-03-23T11:34:42;99433.06;;;8.89;88.88
4858;BME280;58975;51.978;8.472;2024-03-23T11:39:39;99434.88;;;8.88;87.28
4858;BME280;58975;51.978;8.472;2024-03-23T11:44:34;99439.13;;;8.09;86.91
4858;BME280;58975;51.978;8.472;2024-03-23T11:49:30;99445.44;;;7.56;90.56
4858;BME280;58975;51.978;8.472;2024-03-23T11:54:26;99437.09;;;7.60;93.94
4858;BME280;58975;51.978;8.472;2024-03-23T11:59:35;99431.50;;;7.95;92.71
4858;BME280;58975;51.978;8.472;2024-03-23T12:04:31;99422.88;;;7.41;92.80
4858;BME280;58975;51.978;8.472;2024-03-23T12:09:27;99422.84;;;7.52;94.46
4858;BME280;58975;51.978;8.472;2024-03-23T12:14:22;99421.81;;;7.64;92.71
4858;BME280;58975;51.978;8.472;2024-03-23T12:19:18;99407.97;;;7.81;87.74
4858;BME280;58975;51.978;8.472;2024-03-23T12:24:13;99398.66;;;7.66;86.08
4858;BME280;58975;51.978;8.472;2024-03-23T12:29:09;99445.09;;;7.29;84.72
4858;BME280;58975;51.978;8.472;2024-03-23T12:34:04;99438.38;;;6.37;84.11
4858;BME280;58975;51.978;8.472;2024-03-23T12:39:00;99453.78;;;6.54;86.58
4858;BME280;58975;51.978;8.472;2024-03-23T12:43:55;99459.16;;;6.53;87.89
4858;BME280;58975;51.978;8.472;2024-03-23T12:48:51;99449.53;;;6.63;89.60
4858;BME280;58975;51.978;8.472;2024-03-23T12:53:46;99448.38;;;7.21;90.04
4858;BME280;58975;51.978;8.472;2024-03-23T12:58:42;99437.25;;;7.59;85.91
4858;BME280;58975;51.978;8.472;2024-03-23T13:03:37;99429.59;;;7.45;83.97
4858;BME280;58975;51.978;8.472;2024-03-23T13:08:33;99447.84;;;7.59;82.07
4858;BME280;58975;51.978;8.472;2024-03-23T13:13:28;99451.28;;;7.91;81.51
4858;BME280;58975;51.978;8.472;2024-03-23T13:18:24;99442.06;;;8.37;79.29
4858;BME280;58975;51.978;8.472;2024-03-23T13:23:20;99438.88;;;8.43;80.11
4858;BME280;58975;51.978;8.472;2024-03-23T13:28:15;99453.50;;;7.54;81.74
4858;BME280;58975;51.978;8.472;2024-03-23T13:33:13;99469.53;;;7.10;85.46
4858;BME280;58975;51.978;8.472;2024-03-23T13:38:08;99497.84;;;5.27;86.79
4858;BME280;58975;51.978;8.472;2024-03-23T13:43:04;99503.94;;;4.55;96.73
4858;BME280;58975;51.978;8.472;2024-03-23T13:47:59;99485.38;;;4.69;100.00
4858;BME280;58975;51.978;8.472;2024-03-23T13:52:55;99456.25;;;5.65;100.00
4858;BME280;58975;51.978;8.472;2024-03-23T13:57:50;99455.06;;;6.60;100.00
4858;BME280;58975;51.978;8.472;2024-03-23T14:02:46;99441.22;;;7.33;95.36
4858;BME280;58975;51.978;8.472;2024-03-23T14:07:41;99443.75;;;7.55;93.11
4858;BME280;58975;51.978;8.472;2024-03-23T14:12:37;99441.50;;;7.50;91.23
4858;BME280;58975;51.978;8.472;2024-03-23T14:17:33;99418.59;;;7.29;93.65
4858;BME280;58975;51.978;8.472;2024-03-23T14:22:28;99438.63;;;7.10;93.94
4858;BME280;58975;51.978;8.472;2024-03-23T14:27:24;99493.31;;;6.89;93.37
4858;BME280;58975;51.978;8.472;2024-03-23T14:32:19;99493.44;;;4.29;95.85
4858;BME280;58975;51.978;8.472;2024-03-23T14:37:15;99504.41;;;4.11;100.00
4858;BME280;58975;51.978;8.472;2024-03-23T14:42:11;99496.78;;;4.44;100.00
4858;BME280;58975;51.978;8.472;2024-03-23T14:47:06;99509.53;;;4.63;100.00
4858;BME280;58975;51.978;8.472;2024-03-23T14:52:02;99511.56;;;4.47;100.00
4858;BME280;58975;51.978;8.472;2024-03-23T14:56:58;99512.69;;;3.92;100.00
4858;BME280;58975;51.978;8.472;2024-03-23T15:01:53;99534.03;;;3.75;100.00
4858;BME280;58975;51.978;8.472;2024-03-23T15:06:49;99495.53;;;3.99;100.00
4858;BME280;58975;51.978;8.472;2024-03-23T15:11:45;99481.16;;;4.66;100.00
4858;BME280;58975;51.978;8.472;2024-03-23T15:16:41;99463.75;;;5.83;100.00
4858;BME280;58975;51.978;8.472;2024-03-23T15:21:37;99451.25;;;6.42;100.00
4858;BME280;58975;51.978;8.472;2024-03-23T15:26:33;99451.94;;;6.44;100.00
4858;BME280;58975;51.978;8.472;2024-03-23T15:31:29;99442.88;;;6.91;100.00
4858;BME280;58975;51.978;8.472;2024-03-23T15:36:27;99425.53;;;6.98;100.00
4858;BME280;58975;51.978;8.472;2024-03-23T15:41:22;99424.53;;;6.67;100.00
4858;BME280;58975;51.978;8.472;2024-03-23T15:46:20;99412.88;;;6.47;100.00
4858;BME280;58975;51.978;8.472;2024-03-23T15:51:15;99402.84;;;6.84;100.00
4858;BME280;58975;51.978;8.472;2024-03-23T15:56:11;99397.78;;;6.92;100.00
4858;BME280;58975;51.978;8.472;2024-03-23T16:01:08;99389.47;;;6.97;100.00
4858;BME280;58975;51.978;8.472;2024-03-23T16:06:08;99390.91;;;7.01;100.00
4858;BME280;58975;51.978;8.472;2024-03-23T16:11:05;99374.03;;;7.02;100.00
4858;BME280;58975;51.978;8.472;2024-03-23T16:16:02;99388.16;;;6.91;100.00
4858;BME280;58975;51.978;8.472;2024-03-23T16:21:07;99373.59;;;6.43;100.00
4858;BME280;58975;51.978;8.472;2024-03-23T16:26:03;99385.38;;;6.28;100.00
4858;BME280;58975;51.978;8.472;2024-03-23T16:31:04;99377.06;;;6.32;100.00
4858;BME280;58975;51.978;8.472;2024-03-23T16:36:02;99374.03;;;6.59;100.00
4858;BME280;58975;51.978;8.472;2024-03-23T16:41:04;99401.22;;;7.04;98.44
4858;BME280;58975;51.978;8.472;2024-03-23T16:46:03;99386.69;;;6.44;92.22
4858;BME280;58975;51.978;8.472;2024-03-23T16:51:00;99400.28;;;6.17;92.04
4858;BME280;58975;51.978;8.472;2024-03-23T16:56:00;99392.00;;;6.22;92.51
4858;BME280;58975;51.978;8.472;2024-03-23T17:00:57;99400.72;;;5.89;93.55
4858;BME280;58975;51.978;8.472;2024-03-23T17:05:57;99398.72;;;5.69;95.82
4858;BME280;58975;51.978;8.472;2024-03-23T17:10:57;99397.50;;;5.51;97.49
4858;BME280;58975;51.978;8.472;2024-03-23T17:15:54;99395.94;;;5.48;97.86
4858;BME280;58975;51.978;8.472;2024-03-23T17:20:50;99390.66;;;5.48;98.86
4858;BME280;58975;51.978;8.472;2024-03-23T17:25:45;99382.47;;;5.40;99.94
4858;BME280;58975;51.978;8.472;2024-03-23T17:30:42;99394.56;;;5.32;100.00
4858;BME280;58975;51.978;8.472;2024-03-23T17:35:37;99384.97;;;5.31;100.00
4858;BME280;58975;51.978;8.472;2024-03-23T17:40:34;99393.13;;;5.28;100.00
4858;BME280;58975;51.978;8.472;2024-03-23T17:45:30;99398.63;;;5.24;100.00
4858;BME280;58975;51.978;8.472;2024-03-23T17:50:25;99406.13;;;5.18;100.00
4858;BME280;58975;51.978;8.472;2024-03-23T17:55:21;99401.44;;;5.10;100.00
4858;BME280;58975;51.978;8.472;2024-03-23T18:00:16;99394.06;;;5.03;100.00
4858;BME280;58975;51.978;8.472;2024-03-23T18:05:15;99397.75;;;4.89;100.00
4858;BME280;58975;51.978;8.472;2024-03-23T18:10:14;99426.53;;;4.92;100.00
4858;BME280;58975;51.978;8.472;2024-03-23T18:15:10;99447.81;;;4.65;100.00
4858;BME280;58975;51.978;8.472;2024-03-23T18:20:06;99440.50;;;4.20;100.00
4858;BME280;58975;51.978;8.472;2024-03-23T18:25:01;99430.41;;;3.89;100.00
4858;BME280;58975;51.978;8.472;2024-03-23T18:29:57;99432.09;;;3.90;100.00
4858;BME280;58975;51.978;8.472;2024-03-23T18:34:52;99438.22;;;3.90;100.00
4858;BME280;58975;51.978;8.472;2024-03-23T18:39:48;99445.47;;;3.74;100.00
4858;BME280;58975;51.978;8.472;2024-03-23T18:44:43;99436.28;;;3.67;100.00
4858;BME280;58975;51.978;8.472;2024-03-23T18:49:39;99432.06;;;3.52;100.00
4858;BME280;58975;51.978;8.472;2024-03-23T18:54:34;99428.88;;;3.47;100.00
4858;BME280;58975;51.978;8.472;2024-03-23T18:59:30;99429.09;;;3.44;100.00
4858;BME280;58975;51.978;8.472;2024-03-23T19:04:25;99423.19;;;3.40;100.00
4858;BME280;58975;51.978;8.472;2024-03-23T19:09:21;99433.47;;;3.30;100.00
4858;BME280;58975;51.978;8.472;2024-03-23T19:14:16;99436.22;;;3.29;100.00
4858;BME280;58975;51.978;8.472;2024-03-23T19:19:12;99445.56;;;3.20;100.00
4858;BME280;58975;51.978;8.472;2024-03-23T19:24:08;99440.81;;;3.25;100.00
4858;BME280;58975;51.978;8.472;2024-03-23T19:29:03;99437.03;;;3.29;100.00
4858;BME280;58975;51.978;8.472;2024-03-23T19:34:00;99447.19;;;3.36;100.00
4858;BME280;58975;51.978;8.472;2024-03-23T19:38:56;99439.84;;;3.41;100.00
4858;BME280;58975;51.978;8.472;2024-03-23T19:43:52;99443.78;;;3.33;100.00
4858;BME280;58975;51.978;8.472;2024-03-23T19:48:48;99440.63;;;3.28;100.00
4858;BME280;58975;51.978;8.472;2024-03-23T19:53:44;99434.09;;;3.21;100.00
4858;BME280;58975;51.978;8.472;2024-03-23T19:58:39;99429.97;;;3.17;100.00
4858;BME280;58975;51.978;8.472;2024-03-23T20:03:35;99428.31;;;3.02;100.00
4858;BME280;58975;51.978;8.472;2024-03-23T20:08:31;99434.28;;;2.92;100.00
4858;BME280;58975;51.978;8.472;2024-03-23T20:13:26;99426.06;;;2.83;100.00
4858;BME280;58975;51.978;8.472;2024-03-23T20:18:22;99429.09;;;2.77;100.00
4858;BME280;58975;51.978;8.472;2024-03-23T20:23:18;99425.25;;;2.69;100.00
4858;BME280;58975;51.978;8.472;2024-03-23T20:28:13;99419.22;;;2.67;100.00
4858;BME280;58975;51.978;8.472;2024-03-23T20:33:09;99406.44;;;2.75;100.00
4858;BME280;58975;51.978;8.472;2024-03-23T20:38:04;99406.75;;;2.70;100.00
4858;BME280;58975;51.978;8.472;2024-03-23T20:43:06;99412.66;;;2.74;100.00
4858;BME280;58975;51.978;8.472;2024-03-23T20:48:02;99402.16;;;2.74;100.00
4858;BME280;58975;51.978;8.472;2024-03-23T20:52:58;99409.72;;;2.78;100.00
4858;BME280;58975;51.978;8.472;2024-03-23T20:57:54;99402.59;;;2.80;100.00
4858;BME280;58975;51.978;8.472;2024-03-23T21:02:49;99398.22;;;2.94;100.00
4858;BME280;58975;51.978;8.472;2024-03-23T21:07:45;99398.66;;;3.00;100.00
4858;BME280;58975;51.978;8.472;2024-03-23T21:12:40;99407.09;;;3.05;100.00
4858;BME280;58975;51.978;8.472;2024-03-23T21:17:36;99405.22;;;3.07;100.00
4858;BME280;58975;51.978;8.472;2024-03-23T21:22:31;99404.81;;;3.13;100.00
4858;BME280;58975;51.978;8.472;2024-03-23T21:27:27;99390.69;;;3.14;100.00
4858;BME280;58975;51.978;8.472;2024-03-23T21:32:22;99390.69;;;3.14;100.00
4858;BME280;58975;51.978;8.472;2024-03-23T21:37:19;99379.44;;;3.12;100.00
4858;BME280;58975;51.978;8.472;2024-03-23T21:42:15;99381.88;;;3.15;100.00
4858;BME280;58975;51.978;8.472;2024-03-23T21:47:11;99373.44;;;3.10;100.00
4858;BME280;58975;51.978;8.472;2024-03-23T21:52:06;99366.50;;;3.09;100.00
4858;BME280;58975;51.978;8.472;2024-03-23T21:57:02;99366.28;;;3.12;100.00
4858;BME280;58975;51.978;8.472;2024-03-23T22:01:58;99361.75;;;3.14;100.00
4858;BME280;58975;51.978;8.472;2024-03-23T22:06:53;99352.53;;;3.21;100.00
4858;BME280;58975;51.978;8.472;2024-03-23T22:11:49;99346.22;;;3.24;100.00
4858;BME280;58975;51.978;8.472;2024-03-23T22:16:44;99338.97;;;3.27;100.00
4858;BME280;58975;51.978;8.472;2024-03-23T22:21:40;99328.88;;;3.21;100.00
4858;BME280;58975;51.978;8.472;2024-03-23T22:26:36;99330.66;;;3.21;100.00
4858;BME280;58975;51.978;8.472;2024-03-23T22:31:31;99321.28;;;3.17;100.00
4858;BME280;58975;51.978;8.472;2024-03-23T22:36:27;99321.28;;;3.17;100.00
4858;BME280;58975;51.978;8.472;2024-03-23T22:41:22;99315.72;;;3.21;100.00
4858;BME280;58975;51.978;8.472;2024-03-23T22:46:18;99309.91;;;3.16;100.00
4858;BME280;58975;51.978;8.472;2024-03-23T22:51:13;99296.44;;;3.08;100.00
4858;BME280;58975;51.978;8.472;2024-03-23T22:56:09;99293.69;;;2.97;100.00
4858;BME280;58975;51.978;8.472;2024-03-23T23:01:06;99293.69;;;2.97;100.00
4858;BME280;58975;51.978;8.472;2024-03-23T23:06:03;99288.81;;;2.91;100.00
4858;BME280;58975;51.978;8.472;2024-03-23T23:10:59;99294.28;;;2.88;100.00
4858;BME280;58975;51.978;8.472;2024-03-23T23:15:55;99289.44;;;2.82;100.00
4858;BME280;58975;51.978;8.472;2024-03-23T23:20:54;99280.38;;;2.73;100.00
4858;BME280;58975;51.978;8.472;2024-03-23T23:25:49;99290.25;;;2.70;100.00
4858;BME280;58975;51.978;8.472;2024-03-23T23:30:58;99282.75;;;2.64;100.00
4858;BME280;58975;51.978;8.472;2024-03-23T23:35:55;99274.47;;;2.70;100.00
4858;BME280;58975;51.978;8.472;2024-03-23T23:40:50;99273.13;;;2.77;100.00
4858;BME280;58975;51.978;8.472;2024-03-23T23:45:46;99267.56;;;2.81;100.00
4858;BME280;58975;51.978;8.472;2024-03-23T23:50:41;99268.28;;;2.83;100.00
4858;BME280;58975;51.978;8.472;2024-03-23T23:55:37;99263.88;;;2.84;100.00
